Royal Prince — WCX8037 — position and weather

sailwx.info

Track history (hours):
 
Tides and Currents Weather Stations Pressure Air Temp Water Temp Dewpoint Dewpoint Depression Visibility Wind Speed Wind Dir Waves Ship Positions

Royal Prince

Owner: Golden Gate Scenic Steamship Corp, SAN FRANCISCO, CA. More information available from US FCC via Universal Licensing System and Coast Guard Vessel Documentation Center.

Last reported at 2014-Oct-30 23:24 UTC. Time now 2014-Oct-31 09:53 UTC.
Position N 37°49' W 122°25'.

Length 28 m; draft 2.3 m.

Type: Passenger vessel. MMSI: 366975760.

Date/timePositionNaut miles runAvg speedWind from/ knotsBaromVisibWave heightAir tempDewpointWater temp
2014-Oct-30 23:24N 37°49' W 122°25'3 3.1
2014-Oct-30 22:33N 37°50' W 122°28'3 2.9
2014-Oct-30 21:33N 37°49' W 122°24'0 0.4
2014-Oct-30 20:33N 37°49' W 122°25'2 1.9
2014-Oct-30 19:33N 37°50' W 122°27'2 1.9
2014-Oct-30 18:33N 37°49' W 122°25'1 0.1
2014-Oct-30 00:33N 37°49' W 122°24'3 2.6
2014-Oct-29 23:34N 37°49' W 122°27'1 1.0
2014-Oct-29 22:34N 37°50' W 122°27'2 2.2
2014-Oct-29 21:33N 37°49' W 122°25'1 0.8
2014-Oct-29 20:34N 37°49' W 122°25'3 2.5
2014-Oct-29 19:33N 37°49' W 122°28'3 2.7
2014-Oct-29 18:34N 37°49' W 122°25'1 0.6
2014-Oct-29 17:33N 37°49' W 122°25'0 0.0
2014-Oct-29 16:05N 37°49' W 122°25'0 0.0
2014-Oct-29 15:33N 37°49' W 122°25'1 0.0
2014-Oct-29 00:33N 37°49' W 122°24'3 2.7
2014-Oct-28 23:33N 37°49' W 122°27'1 0.9
2014-Oct-28 22:33N 37°50' W 122°27'3 2.5
2014-Oct-28 21:33N 37°49' W 122°24'1 0.6
2014-Oct-28 20:33N 37°49' W 122°25'2 2.5
2014-Oct-28 19:33N 37°49' W 122°28'3 2.6
2014-Oct-28 18:33N 37°49' W 122°25'1 0.1
2014-Oct-28 00:33N 37°48' W 122°24'3 3.2
2014-Oct-27 23:33N 37°49' W 122°28'1 1.1
2014-Oct-27 22:33N 37°50' W 122°27'2 1.9
2014-Oct-27 21:33N 37°49' W 122°25'0 0.3
2014-Oct-27 20:33N 37°49' W 122°25'2 2.1
2014-Oct-27 19:33N 37°50' W 122°27'2 1.9
2014-Oct-27 18:34N 37°49' W 122°25'1 0.8
2014-Oct-27 17:34N 37°49' W 122°25'1 0.0
2014-Oct-27 00:33N 37°48' W 122°24'3 2.9
2014-Oct-26 23:33N 37°49' W 122°28'1 0.5
2014-Oct-26 22:33N 37°49' W 122°27'2 2.2
2014-Oct-26 21:33N 37°49' W 122°24'0 0.4
2014-Oct-26 20:33N 37°49' W 122°25'3 3.1
2014-Oct-26 19:33N 37°49' W 122°29'2 2.2
2014-Oct-26 18:33N 37°50' W 122°26'1 0.1
2014-Oct-26 06:29N 37°49' W 122°25'1 1.1
2014-Oct-26 05:33N 37°49' W 122°26'3 3.3
2014-Oct-26 04:33N 37°52' W 122°28'5 5.2
2014-Oct-26 03:33N 37°48' W 122°23'1 1.3
2014-Oct-26 02:33N 37°49' W 122°25'0 0.0
2014-Oct-26 01:33N 37°49' W 122°25'1 0.9
2014-Oct-26 00:33N 37°48' W 122°24'3 2.9
2014-Oct-25 23:33N 37°49' W 122°27'1 0.8
2014-Oct-25 22:33N 37°49' W 122°28'3 3.2
2014-Oct-25 21:33N 37°49' W 122°24'1 0.7
2014-Oct-25 20:33N 37°49' W 122°25'2 2.4
2014-Oct-25 19:33N 37°49' W 122°28'2 2.1
2014-Oct-25 18:33N 37°50' W 122°25'1 1.0
2014-Oct-25 17:33N 37°49' W 122°25'0 0.0
2014-Oct-25 00:33N 37°49' W 122°24'3 3.3
2014-Oct-24 23:33N 37°49' W 122°28'2 1.6
2014-Oct-24 22:33N 37°50' W 122°27'2 1.7
2014-Oct-24 21:33N 37°49' W 122°25'0 0.3
2014-Oct-24 20:33N 37°49' W 122°25'2 2.1
2014-Oct-24 19:33N 37°50' W 122°27'2 2.5
2014-Oct-24 18:33N 37°49' W 122°24'1 0.6
2014-Oct-24 17:33N 37°49' W 122°25'1 0.1
2014-Oct-24 00:33N 37°48' W 122°24'3 2.8
2014-Oct-23 23:33N 37°49' W 122°27'1 0.6
2014-Oct-23 22:33N 37°49' W 122°28'2 1.9
2014-Oct-23 21:33N 37°49' W 122°25'1 0.9
2014-Oct-23 20:33N 37°49' W 122°25'2 2.3
2014-Oct-23 19:33N 37°49' W 122°28'2 2.2
2014-Oct-23 18:33N 37°49' W 122°25'1 0.0
2014-Oct-22 01:18N 37°49' W 122°25'1 1.5
2014-Oct-22 00:34N 37°48' W 122°24'3 2.5
2014-Oct-21 23:33N 37°49' W 122°27'1 0.7
2014-Oct-21 22:33N 37°50' W 122°27'2 2.0
2014-Oct-21 21:33N 37°49' W 122°25'1 0.6
2014-Oct-21 20:34N 37°49' W 122°25'2 2.4
2014-Oct-21 19:33N 37°49' W 122°28'2 2.1
2014-Oct-21 18:33N 37°50' W 122°25'1 0.1
2014-Oct-21 00:34N 37°50' W 122°27'2 1.9
2014-Oct-20 23:34N 37°49' W 122°24'  
Track history (hours):
 
Tides and Currents Weather Stations Pressure Air Temp Water Temp Dewpoint Dewpoint Depression Visibility Wind Speed Wind Dir Waves Ship Positions

Royal Prince

Owner: Golden Gate Scenic Steamship Corp, SAN FRANCISCO, CA. More information available from US FCC via Universal Licensing System and Coast Guard Vessel Documentation Center.

Last reported at 2014-Oct-30 23:24 UTC. Time now 2014-Oct-31 09:53 UTC.
Position N 37°49' W 122°25'.

Length 28 m; draft 2.3 m.

Type: Passenger vessel. MMSI: 366975760.

Date/timePositionNaut miles runAvg speedWind from/ knotsBaromVisibWave heightAir tempDewpointWater temp
2014-Oct-30 23:24N 37°49' W 122°25'3 3.1
2014-Oct-30 22:33N 37°50' W 122°28'3 2.9
2014-Oct-30 21:33N 37°49' W 122°24'0 0.4
2014-Oct-30 20:33N 37°49' W 122°25'2 1.9
2014-Oct-30 19:33N 37°50' W 122°27'2 1.9
2014-Oct-30 18:33N 37°49' W 122°25'1 0.1
2014-Oct-30 00:33N 37°49' W 122°24'3 2.6
2014-Oct-29 23:34N 37°49' W 122°27'1 1.0
2014-Oct-29 22:34N 37°50' W 122°27'2 2.2
2014-Oct-29 21:33N 37°49' W 122°25'1 0.8
2014-Oct-29 20:34N 37°49' W 122°25'3 2.5
2014-Oct-29 19:33N 37°49' W 122°28'3 2.7
2014-Oct-29 18:34N 37°49' W 122°25'1 0.6
2014-Oct-29 17:33N 37°49' W 122°25'0 0.0
2014-Oct-29 16:05N 37°49' W 122°25'0 0.0
2014-Oct-29 15:33N 37°49' W 122°25'1 0.0
2014-Oct-29 00:33N 37°49' W 122°24'3 2.7
2014-Oct-28 23:33N 37°49' W 122°27'1 0.9
2014-Oct-28 22:33N 37°50' W 122°27'3 2.5
2014-Oct-28 21:33N 37°49' W 122°24'1 0.6
2014-Oct-28 20:33N 37°49' W 122°25'2 2.5
2014-Oct-28 19:33N 37°49' W 122°28'3 2.6
2014-Oct-28 18:33N 37°49' W 122°25'1 0.1
2014-Oct-28 00:33N 37°48' W 122°24'3 3.2
2014-Oct-27 23:33N 37°49' W 122°28'1 1.1
2014-Oct-27 22:33N 37°50' W 122°27'2 1.9
2014-Oct-27 21:33N 37°49' W 122°25'0 0.3
2014-Oct-27 20:33N 37°49' W 122°25'2 2.1
2014-Oct-27 19:33N 37°50' W 122°27'2 1.9
2014-Oct-27 18:34N 37°49' W 122°25'1 0.8
2014-Oct-27 17:34N 37°49' W 122°25'1 0.0
2014-Oct-27 00:33N 37°48' W 122°24'3 2.9
2014-Oct-26 23:33N 37°49' W 122°28'1 0.5
2014-Oct-26 22:33N 37°49' W 122°27'2 2.2
2014-Oct-26 21:33N 37°49' W 122°24'0 0.4
2014-Oct-26 20:33N 37°49' W 122°25'3 3.1
2014-Oct-26 19:33N 37°49' W 122°29'2 2.2
2014-Oct-26 18:33N 37°50' W 122°26'1 0.1
2014-Oct-26 06:29N 37°49' W 122°25'1 1.1
2014-Oct-26 05:33N 37°49' W 122°26'3 3.3
2014-Oct-26 04:33N 37°52' W 122°28'5 5.2
2014-Oct-26 03:33N 37°48' W 122°23'1 1.3
2014-Oct-26 02:33N 37°49' W 122°25'0 0.0
2014-Oct-26 01:33N 37°49' W 122°25'1 0.9
2014-Oct-26 00:33N 37°48' W 122°24'3 2.9
2014-Oct-25 23:33N 37°49' W 122°27'1 0.8
2014-Oct-25 22:33N 37°49' W 122°28'3 3.2
2014-Oct-25 21:33N 37°49' W 122°24'1 0.7
2014-Oct-25 20:33N 37°49' W 122°25'2 2.4
2014-Oct-25 19:33N 37°49' W 122°28'2 2.1
2014-Oct-25 18:33N 37°50' W 122°25'1 1.0
2014-Oct-25 17:33N 37°49' W 122°25'0 0.0
2014-Oct-25 00:33N 37°49' W 122°24'3 3.3
2014-Oct-24 23:33N 37°49' W 122°28'2 1.6
2014-Oct-24 22:33N 37°50' W 122°27'2 1.7
2014-Oct-24 21:33N 37°49' W 122°25'0 0.3
2014-Oct-24 20:33N 37°49' W 122°25'2 2.1
2014-Oct-24 19:33N 37°50' W 122°27'2 2.5
2014-Oct-24 18:33N 37°49' W 122°24'1 0.6
2014-Oct-24 17:33N 37°49' W 122°25'1 0.1
2014-Oct-24 00:33N 37°48' W 122°24'3 2.8
2014-Oct-23 23:33N 37°49' W 122°27'1 0.6
2014-Oct-23 22:33N 37°49' W 122°28'2 1.9
2014-Oct-23 21:33N 37°49' W 122°25'1 0.9
2014-Oct-23 20:33N 37°49' W 122°25'2 2.3
2014-Oct-23 19:33N 37°49' W 122°28'2 2.2
2014-Oct-23 18:33N 37°49' W 122°25'1 0.0
2014-Oct-22 01:18N 37°49' W 122°25'1 1.5
2014-Oct-22 00:34N 37°48' W 122°24'3 2.5
2014-Oct-21 23:33N 37°49' W 122°27'1 0.7
2014-Oct-21 22:33N 37°50' W 122°27'2 2.0
2014-Oct-21 21:33N 37°49' W 122°25'1 0.6
2014-Oct-21 20:34N 37°49' W 122°25'2 2.4
2014-Oct-21 19:33N 37°49' W 122°28'2 2.1
2014-Oct-21 18:33N 37°50' W 122°25'1 0.1
2014-Oct-21 00:34N 37°50' W 122°27'2 1.9
2014-Oct-20 23:34N 37°49' W 122°24'  

Dump ship's entire track history